Time;durP1;ratioP1;P1;durP2;ratioP2;P2;SDS_P1;SDS_P2;PMS_P1;PMS_P2;Temp;Humidity;BMP_temperature;BMP_pressure;BME280_temperature;BME280_humidity;BME280_pressure;Samples;Min_cycle;Max_cycle;Signal;HPM_P1;HPM_P2
2021/06/25 00:01:38;;;;;;;14.95;13.75;;;15.80;82.90;;;;;;5159242;28;20833;-70
2021/06/25 00:04:10;;;;;;;14.77;13.48;;;15.80;82.60;;;;;;5156871;28;20575;-70
2021/06/25 00:06:42;;;;;;;14.70;13.50;;;15.80;82.10;;;;;;5157550;28;20504;-70
2021/06/25 00:09:14;;;;;;;14.73;13.63;;;15.80;82.30;;;;;;5156914;28;20040;-70
2021/06/25 00:11:46;;;;;;;14.70;13.60;;;15.80;82.70;;;;;;5159505;28;20297;-71
2021/06/25 00:14:21;;;;;;;14.75;13.30;;;15.80;82.60;;;;;;5160880;28;20038;-71
2021/06/25 00:16:53;;;;;;;14.73;13.45;;;15.80;82.90;;;;;;5160498;28;20107;-70
2021/06/25 00:19:25;;;;;;;14.40;13.30;;;15.80;82.80;;;;;;5164999;28;20041;-71
2021/06/25 00:21:57;;;;;;;14.60;13.45;;;15.80;83.00;;;;;;5161333;28;20132;-70
2021/06/25 00:24:29;;;;;;;14.70;13.60;;;15.80;83.20;;;;;;5163084;28;20049;-70
2021/06/25 00:27:01;;;;;;;14.50;13.30;;;15.80;83.10;;;;;;5163121;28;20142;-69
2021/06/25 00:29:33;;;;;;;14.45;13.35;;;15.80;83.70;;;;;;5165106;28;20058;-70
2021/06/25 00:32:06;;;;;;;15.05;13.85;;;15.70;83.70;;;;;;5163099;28;20037;-71
2021/06/25 00:34:38;;;;;;;14.45;13.35;;;15.60;83.30;;;;;;5161499;28;20050;-70
2021/06/25 00:37:10;;;;;;;14.55;13.45;;;15.70;83.40;;;;;;5160983;28;20140;-70
2021/06/25 00:39:42;;;;;;;14.90;13.75;;;15.60;83.80;;;;;;5163566;28;20050;-70
2021/06/25 00:42:14;;;;;;;14.60;13.50;;;15.60;83.80;;;;;;5161116;28;20074;-70
2021/06/25 00:44:46;;;;;;;14.75;13.50;;;15.60;84.30;;;;;;5162248;28;20069;-71
2021/06/25 00:47:18;;;;;;;14.63;13.52;;;15.60;84.00;;;;;;5161042;28;20050;-70
2021/06/25 00:49:50;;;;;;;14.57;13.48;;;15.70;84.40;;;;;;5163687;28;20089;-70
2021/06/25 00:52:22;;;;;;;14.38;13.27;;;15.60;84.60;;;;;;5162262;28;20105;-69
2021/06/25 00:54:54;;;;;;;14.60;13.50;;;15.60;84.10;;;;;;5178694;28;20077;-71
2021/06/25 00:57:26;;;;;;;14.68;13.57;;;15.50;84.80;;;;;;5163088;28;21142;-70
2021/06/25 00:59:58;;;;;;;15.13;13.93;;;15.50;84.30;;;;;;5165052;28;20558;-70
2021/06/25 01:02:29;;;;;;;14.73;13.63;;;15.50;84.90;;;;;;5160337;28;20070;-71
2021/06/25 01:05:04;;;;;;;14.73;13.63;;;15.50;84.60;;;;;;5164062;28;20535;-71
2021/06/25 01:07:36;;;;;;;14.90;13.80;;;15.50;84.30;;;;;;5159169;28;20054;-71
2021/06/25 01:10:10;;;;;;;15.20;13.90;;;15.60;83.70;;;;;;5165926;28;20046;-71
2021/06/25 01:12:43;;;;;;;15.13;13.70;;;15.60;84.00;;;;;;5159613;28;20074;-70
2021/06/25 01:15:16;;;;;;;15.10;13.90;;;15.60;84.10;;;;;;5158375;28;20584;-72
2021/06/25 01:17:48;;;;;;;15.02;13.80;;;15.50;84.00;;;;;;5159411;28;20044;-70
2021/06/25 01:20:32;;;;;;;14.68;13.57;;;15.60;83.80;;;;;;5162291;28;20574;-70
2021/06/25 01:23:05;;;;;;;14.98;13.88;;;15.60;83.60;;;;;;5162422;28;20104;-71
2021/06/25 01:25:38;;;;;;;15.30;14.00;;;15.60;83.50;;;;;;5149224;28;20599;-70
2021/06/25 01:28:12;;;;;;;15.25;13.98;;;15.60;83.80;;;;;;5161389;28;20585;-71
2021/06/25 01:30:46;;;;;;;15.00;13.88;;;15.60;84.50;;;;;;5161468;28;20054;-70
2021/06/25 01:33:19;;;;;;;14.85;13.70;;;15.60;83.90;;;;;;5164432;28;20069;-72
2021/06/25 01:35:54;;;;;;;14.77;13.68;;;15.60;83.80;;;;;;5161327;28;20061;-70
2021/06/25 01:38:26;;;;;;;15.43;14.20;;;15.60;83.70;;;;;;5162246;28;20582;-70
2021/06/25 01:40:59;;;;;;;15.68;14.45;;;15.60;83.20;;;;;;5160498;28;20508;-70
2021/06/25 01:43:32;;;;;;;15.82;14.40;;;15.60;84.10;;;;;;5160133;28;20104;-71
2021/06/25 01:46:06;;;;;;;15.27;14.13;;;15.60;83.80;;;;;;5161659;28;20046;-70
2021/06/25 01:48:38;;;;;;;15.52;14.32;;;15.60;84.70;;;;;;5174640;28;20054;-70
2021/06/25 01:51:10;;;;;;;15.40;14.20;;;15.50;84.80;;;;;;5161058;28;20129;-71
2021/06/25 01:53:42;;;;;;;15.00;13.90;;;15.50;84.30;;;;;;5164494;28;20121;-71
2021/06/25 01:56:14;;;;;;;15.20;14.10;;;15.50;84.10;;;;;;5160537;28;20046;-70
2021/06/25 01:58:46;;;;;;;15.05;13.95;;;15.60;84.00;;;;;;5160188;28;20085;-71
2021/06/25 02:01:18;;;;;;;15.48;13.98;;;15.60;83.80;;;;;;5162033;28;20106;-70
2021/06/25 02:03:50;;;;;;;14.98;13.73;;;15.50;84.30;;;;;;5162421;28;20101;-71
2021/06/25 02:06:22;;;;;;;14.77;13.68;;;15.50;83.70;;;;;;5159096;28;20078;-70
2021/06/25 02:08:54;;;;;;;14.48;13.48;;;15.50;83.50;;;;;;5163675;28;20054;-70
2021/06/25 02:11:26;;;;;;;14.90;13.80;;;15.50;83.00;;;;;;5159188;28;20058;-71
2021/06/25 02:13:57;;;;;;;15.05;13.85;;;15.40;83.20;;;;;;5161144;28;20046;-71
2021/06/25 02:16:32;;;;;;;14.95;13.73;;;15.50;83.30;;;;;;5159562;28;20351;-71
2021/06/25 02:19:04;;;;;;;14.80;13.70;;;15.40;83.60;;;;;;5160002;28;20436;-71
2021/06/25 02:21:36;;;;;;;14.82;13.70;;;15.20;82.60;;;;;;5148213;28;20104;-70
2021/06/25 02:24:08;;;;;;;14.85;13.75;;;15.10;83.80;;;;;;5161015;28;20108;-69
2021/06/25 02:26:40;;;;;;;15.10;14.00;;;15.10;84.90;;;;;;5157731;28;20042;-70
2021/06/25 02:29:12;;;;;;;15.07;13.77;;;15.10;84.90;;;;;;5160205;28;20069;-71
2021/06/25 02:31:44;;;;;;;14.95;13.85;;;15.00;84.50;;;;;;5161627;28;20133;-71
2021/06/25 02:34:16;;;;;;;15.00;13.90;;;15.00;84.40;;;;;;5165602;28;20097;-70
2021/06/25 02:36:48;;;;;;;15.13;13.88;;;15.10;84.60;;;;;;5155185;28;20101;-71
2021/06/25 02:39:20;;;;;;;15.00;13.90;;;15.20;83.90;;;;;;5159547;28;20074;-72
2021/06/25 02:41:52;;;;;;;15.00;13.80;;;15.20;84.40;;;;;;5143453;28;20076;-70
2021/06/25 02:44:24;;;;;;;14.88;13.77;;;15.20;84.00;;;;;;5163882;28;20049;-70
2021/06/25 02:46:56;;;;;;;14.82;13.73;;;15.20;83.90;;;;;;5160421;28;20448;-69
2021/06/25 02:49:28;;;;;;;15.07;13.90;;;15.20;83.90;;;;;;5161808;28;20581;-70
2021/06/25 02:51:59;;;;;;;14.98;13.75;;;15.20;83.70;;;;;;5158922;28;20125;-70
2021/06/25 02:54:32;;;;;;;14.77;13.73;;;15.20;83.80;;;;;;5163736;28;20050;-72
2021/06/25 02:57:04;;;;;;;14.57;13.48;;;15.20;84.20;;;;;;5161573;28;20963;-72
2021/06/25 02:59:36;;;;;;;14.88;13.77;;;15.10;84.20;;;;;;5162460;28;20061;-72
2021/06/25 03:02:08;;;;;;;15.45;14.32;;;15.10;84.70;;;;;;5160939;28;20977;-71
2021/06/25 03:04:40;;;;;;;15.90;14.63;;;15.00;85.50;;;;;;5158646;28;20065;-71
2021/06/25 03:07:12;;;;;;;15.65;14.45;;;14.90;86.00;;;;;;5160776;28;20078;-70
2021/06/25 03:09:44;;;;;;;15.73;14.52;;;14.80;86.40;;;;;;5161013;28;20504;-71
2021/06/25 03:12:16;;;;;;;15.38;14.20;;;14.80;86.00;;;;;;5162075;28;20152;-71
2021/06/25 03:14:48;;;;;;;15.25;14.15;;;14.80;85.40;;;;;;5157948;28;20334;-71
2021/06/25 03:17:20;;;;;;;15.57;14.48;;;14.90;86.70;;;;;;5160442;28;20416;-71
2021/06/25 03:19:52;;;;;;;15.07;13.98;;;14.90;86.70;;;;;;5159805;28;20585;-71
2021/06/25 03:22:24;;;;;;;15.57;14.48;;;14.90;86.10;;;;;;5162284;28;21488;-70
2021/06/25 03:24:56;;;;;;;15.48;14.30;;;14.90;85.50;;;;;;5143386;28;20057;-71
2021/06/25 03:27:27;;;;;;;15.15;13.95;;;15.00;84.70;;;;;;5159160;28;20520;-71
2021/06/25 03:29:59;;;;;;;15.02;13.93;;;15.00;85.20;;;;;;5160313;28;20108;-71
2021/06/25 03:32:32;;;;;;;14.90;13.80;;;15.10;85.00;;;;;;5160215;28;20057;-72
2021/06/25 03:35:06;;;;;;;14.88;13.70;;;15.10;85.00;;;;;;5162186;28;20046;-71
2021/06/25 03:37:38;;;;;;;15.02;13.93;;;15.10;84.40;;;;;;5159914;28;20452;-71
2021/06/25 03:40:12;;;;;;;15.23;14.10;;;15.10;84.10;;;;;;5158389;28;20389;-71
2021/06/25 03:42:44;;;;;;;14.88;13.70;;;15.10;84.40;;;;;;5161744;28;20054;-71
2021/06/25 03:45:16;;;;;;;14.93;13.75;;;15.20;83.80;;;;;;5161478;28;20116;-72
2021/06/25 03:47:48;;;;;;;14.93;13.73;;;15.10;84.40;;;;;;5158082;28;20051;-72
2021/06/25 03:50:20;;;;;;;14.82;13.73;;;15.20;84.80;;;;;;5160706;28;20126;-70
2021/06/25 03:52:52;;;;;;;15.23;14.13;;;15.20;84.40;;;;;;5158216;28;20042;-71
2021/06/25 03:55:24;;;;;;;14.98;13.93;;;15.10;84.60;;;;;;5160315;28;20542;-70
2021/06/25 03:57:56;;;;;;;14.60;13.50;;;15.10;84.90;;;;;;5158233;28;20046;-70
2021/06/25 04:00:28;;;;;;;15.25;14.15;;;15.10;84.50;;;;;;5159727;28;20038;-70
2021/06/25 04:03:01;;;;;;;14.23;13.07;;;15.10;84.50;;;;;;5157657;28;20042;-70
2021/06/25 04:05:33;;;;;;;13.88;12.88;;;15.10;84.80;;;;;;5161541;28;20062;-70
2021/06/25 04:08:05;;;;;;;14.63;13.52;;;15.10;84.10;;;;;;5158845;28;20125;-70
2021/06/25 04:10:37;;;;;;;14.75;13.60;;;15.20;84.20;;;;;;5161287;28;20073;-70
2021/06/25 04:13:09;;;;;;;14.63;13.60;;;15.20;84.00;;;;;;5159725;28;20531;-70
2021/06/25 04:15:41;;;;;;;14.20;13.20;;;15.10;84.40;;;;;;5159910;28;20551;-71
2021/06/25 04:18:14;;;;;;;15.25;14.05;;;15.10;84.20;;;;;;5158015;28;20077;-70
2021/06/25 04:20:46;;;;;;;14.75;13.63;;;15.10;84.40;;;;;;5145956;28;20125;-72
2021/06/25 04:23:18;;;;;;;15.30;14.00;;;15.00;84.50;;;;;;5160522;28;20050;-72
2021/06/25 04:25:50;;;;;;;15.10;14.00;;;15.00;85.10;;;;;;5157977;28;20093;-71
2021/06/25 04:28:24;;;;;;;15.38;14.27;;;15.00;85.20;;;;;;5159566;28;20129;-70
2021/06/25 04:30:56;;;;;;;15.48;14.38;;;15.00;85.10;;;;;;5159266;28;20412;-71
2021/06/25 04:33:28;;;;;;;14.48;13.48;;;15.00;84.30;;;;;;5158458;28;20054;-70
2021/06/25 04:36:00;;;;;;;15.35;14.15;;;15.10;84.10;;;;;;5159881;28;20053;-70
2021/06/25 04:38:32;;;;;;;15.02;13.93;;;15.10;84.60;;;;;;5160454;28;20500;-70
2021/06/25 04:41:04;;;;;;;15.52;14.23;;;15.10;84.10;;;;;;5159349;28;20111;-70
2021/06/25 04:43:36;;;;;;;14.45;13.45;;;15.10;85.40;;;;;;5160800;28;20046;-70
2021/06/25 04:46:08;;;;;;;14.82;13.63;;;15.10;84.40;;;;;;5157986;28;20113;-71
2021/06/25 04:48:43;;;;;;;14.50;13.50;;;15.10;84.70;;;;;;5158845;28;20051;-71
2021/06/25 04:51:15;;;;;;;14.65;13.55;;;15.10;84.40;;;;;;5156831;28;20124;-72
2021/06/25 04:53:47;;;;;;;14.73;13.70;;;15.20;85.10;;;;;;5159811;28;20508;-71
2021/06/25 04:56:20;;;;;;;14.73;13.63;;;15.20;84.20;;;;;;5158088;28;20073;-71
2021/06/25 04:58:52;;;;;;;14.50;13.50;;;15.30;84.50;;;;;;5159394;28;20046;-70
2021/06/25 05:01:24;;;;;;;14.40;13.40;;;15.30;84.10;;;;;;5160209;28;20104;-70
2021/06/25 05:03:56;;;;;;;14.43;13.32;;;15.30;84.20;;;;;;5161081;28;20050;-71
2021/06/25 05:06:28;;;;;;;14.63;13.30;;;15.30;85.10;;;;;;5161165;28;20055;-71
2021/06/25 05:08:59;;;;;;;14.65;13.57;;;15.30;85.50;;;;;;5159401;28;20092;-71
2021/06/25 05:11:32;;;;;;;14.43;13.40;;;15.40;85.50;;;;;;5161614;28;20042;-72
2021/06/25 05:14:03;;;;;;;14.73;13.63;;;15.40;85.30;;;;;;5161194;28;20066;-71
2021/06/25 05:16:36;;;;;;;15.27;13.93;;;15.40;85.30;;;;;;5161149;28;20060;-71
2021/06/25 05:19:08;;;;;;;14.80;13.68;;;15.50;85.40;;;;;;5161278;28;20156;-71
2021/06/25 05:21:40;;;;;;;15.13;13.82;;;15.50;84.80;;;;;;5162540;28;20050;-71
2021/06/25 05:24:11;;;;;;;15.48;14.27;;;15.60;84.80;;;;;;5157898;28;20571;-70
2021/06/25 05:26:43;;;;;;;15.20;14.10;;;15.60;85.00;;;;;;5159880;28;20124;-70
2021/06/25 05:29:16;;;;;;;15.85;14.55;;;15.60;84.60;;;;;;5161256;28;20121;-70
2021/06/25 05:31:48;;;;;;;15.20;14.10;;;15.70;83.80;;;;;;5160014;28;20570;-69
2021/06/25 05:34:19;;;;;;;15.02;13.93;;;15.70;83.90;;;;;;5161209;28;20038;-70
2021/06/25 05:36:51;;;;;;;15.10;13.90;;;15.70;84.20;;;;;;5156874;28;20062;-70
2021/06/25 05:39:23;;;;;;;15.00;13.90;;;15.80;84.50;;;;;;5153389;28;20045;-69
2021/06/25 05:41:55;;;;;;;14.93;13.82;;;15.80;84.00;;;;;;5158553;28;20046;-69
2021/06/25 05:44:27;;;;;;;15.32;14.23;;;15.90;84.30;;;;;;5160694;28;20054;-69
2021/06/25 05:46:59;;;;;;;15.10;14.00;;;15.90;83.60;;;;;;5156688;28;20073;-70
2021/06/25 05:49:32;;;;;;;15.23;14.13;;;15.90;83.30;;;;;;5159745;28;20231;-70
2021/06/25 05:52:04;;;;;;;14.77;13.75;;;15.90;82.90;;;;;;5159449;28;20500;-70
2021/06/25 05:54:36;;;;;;;15.45;14.15;;;16.00;83.20;;;;;;5159916;28;20507;-70
2021/06/25 05:57:08;;;;;;;15.07;13.98;;;16.10;82.70;;;;;;5159403;28;20046;-69
2021/06/25 05:59:40;;;;;;;15.52;14.30;;;16.10;82.50;;;;;;5160390;28;20875;-70
2021/06/25 06:02:12;;;;;;;14.98;13.88;;;16.20;82.80;;;;;;5155517;28;20148;-70
2021/06/25 06:04:44;;;;;;;15.07;13.95;;;16.30;82.60;;;;;;5156385;28;20038;-72
2021/06/25 06:07:17;;;;;;;15.07;13.88;;;16.40;82.10;;;;;;5145995;28;20092;-71
2021/06/25 06:09:48;;;;;;;14.60;13.60;;;16.40;82.60;;;;;;5159913;28;20046;-70
2021/06/25 06:12:21;;;;;;;15.15;14.05;;;16.40;82.20;;;;;;5162453;28;20129;-70
2021/06/25 06:14:54;;;;;;;15.05;13.90;;;16.50;81.40;;;;;;5161509;28;20050;-69
2021/06/25 06:17:26;;;;;;;15.55;14.20;;;16.50;81.20;;;;;;5159224;28;20100;-69
2021/06/25 06:19:58;;;;;;;15.00;13.95;;;16.50;81.20;;;;;;5160645;28;20046;-69
2021/06/25 06:31:20;;;;;;;15.18;14.07;;;16.90;82.40;;;;;;5159596;28;20390;-71
2021/06/25 06:33:56;;;;;;;15.35;14.25;;;17.00;80.20;;;;;;5162092;28;20046;-70
2021/06/25 06:36:41;;;;;;;20.90;18.92;;;17.10;79.80;;;;;;5161986;28;20042;-70
2021/06/25 06:39:14;;;;;;;17.50;16.00;;;17.10;79.70;;;;;;5162613;28;20139;-70
2021/06/25 06:41:46;;;;;;;15.90;14.70;;;17.20;80.40;;;;;;5161387;28;20768;-70
2021/06/25 06:44:18;;;;;;;16.30;15.00;;;17.30;80.20;;;;;;5160590;28;20070;-71
2021/06/25 06:46:50;;;;;;;15.20;14.10;;;17.30;81.60;;;;;;5161836;28;20101;-71
2021/06/25 06:49:22;;;;;;;15.10;14.00;;;17.40;78.90;;;;;;5162289;28;20129;-70
2021/06/25 06:51:53;;;;;;;16.85;15.55;;;17.40;78.90;;;;;;5160422;28;20137;-70
2021/06/25 06:54:25;;;;;;;15.50;14.30;;;17.50;79.50;;;;;;5160755;28;20069;-70
2021/06/25 06:56:58;;;;;;;15.98;14.77;;;17.50;77.80;;;;;;5159674;28;20460;-71
2021/06/25 06:59:30;;;;;;;15.88;14.63;;;17.60;78.20;;;;;;5129383;28;20039;-70
2021/06/25 07:02:02;;;;;;;15.32;14.23;;;17.60;78.10;;;;;;5161566;28;20104;-72
2021/06/25 07:04:43;;;;;;;15.70;14.60;;;17.60;77.40;;;;;;5163303;28;20046;-71
2021/06/25 07:07:15;;;;;;;16.73;15.13;;;17.70;78.00;;;;;;5159705;28;20057;-71
2021/06/25 07:09:47;;;;;;;16.55;15.27;;;17.70;78.20;;;;;;5161887;28;20229;-70
2021/06/25 07:12:19;;;;;;;16.70;15.40;;;17.80;78.50;;;;;;5164312;28;20042;-71
2021/06/25 07:14:51;;;;;;;15.77;14.68;;;17.90;78.30;;;;;;5161966;28;20045;-71
2021/06/25 07:17:23;;;;;;;15.88;14.68;;;17.90;77.10;;;;;;5159782;28;20733;-71
2021/06/25 07:19:55;;;;;;;16.10;14.90;;;17.90;77.10;;;;;;5160998;28;20569;-70
2021/06/25 07:22:27;;;;;;;15.88;14.68;;;17.90;76.80;;;;;;5161261;28;20073;-70
2021/06/25 07:24:59;;;;;;;15.75;14.65;;;17.90;76.00;;;;;;5158819;28;20070;-70
2021/06/25 07:27:31;;;;;;;16.02;14.82;;;18.00;76.90;;;;;;5162198;28;20042;-72
2021/06/25 07:30:07;;;;;;;15.95;14.85;;;18.00;76.80;;;;;;5163312;28;20129;-71
2021/06/25 07:32:39;;;;;;;16.27;15.00;;;18.10;75.90;;;;;;5164058;28;20859;-70
2021/06/25 07:35:11;;;;;;;15.65;14.55;;;18.10;74.60;;;;;;5163139;28;20465;-70
2021/06/25 07:37:43;;;;;;;15.80;14.70;;;18.10;74.10;;;;;;5161097;28;20536;-71
2021/06/25 07:40:15;;;;;;;15.50;14.32;;;18.10;74.50;;;;;;5163511;28;20065;-71
2021/06/25 07:42:48;;;;;;;15.80;14.60;;;18.10;73.60;;;;;;5165107;28;20456;-71
2021/06/25 07:45:20;;;;;;;15.40;14.30;;;18.10;72.10;;;;;;5160484;28;20050;-70
2021/06/25 07:47:52;;;;;;;16.10;14.70;;;18.10;73.10;;;;;;5161655;28;20183;-70
2021/06/25 07:50:24;;;;;;;16.65;15.23;;;18.20;73.20;;;;;;5163313;28;20137;-70
2021/06/25 07:52:56;;;;;;;16.40;15.20;;;18.40;74.30;;;;;;5158083;28;20599;-70
2021/06/25 07:55:28;;;;;;;16.50;15.20;;;18.60;74.30;;;;;;5159928;28;20102;-70
2021/06/25 07:58:00;;;;;;;16.80;15.50;;;18.60;73.90;;;;;;5162772;28;20046;-69
2021/06/25 08:00:32;;;;;;;16.40;15.10;;;18.60;73.60;;;;;;5163145;28;20096;-70
2021/06/25 08:03:05;;;;;;;16.05;14.65;;;18.70;73.70;;;;;;5164398;28;20049;-72
2021/06/25 08:05:38;;;;;;;15.27;14.18;;;18.70;72.40;;;;;;5159720;28;20500;-71
2021/06/25 08:08:10;;;;;;;15.90;14.70;;;18.60;72.60;;;;;;5159921;28;20034;-70
2021/06/25 08:10:42;;;;;;;15.80;14.70;;;18.40;73.10;;;;;;5163442;28;20066;-71
2021/06/25 08:13:14;;;;;;;15.93;14.73;;;18.40;73.30;;;;;;5158213;28;20094;-70
2021/06/25 08:15:49;;;;;;;15.82;14.63;;;18.30;73.30;;;;;;5159048;28;20400;-70
2021/06/25 08:18:22;;;;;;;16.05;14.85;;;18.20;74.20;;;;;;5157853;28;20047;-71
2021/06/25 08:20:54;;;;;;;15.85;14.75;;;18.20;74.40;;;;;;5163661;28;20582;-70
2021/06/25 08:23:26;;;;;;;15.90;14.80;;;18.20;74.40;;;;;;5158886;28;20517;-70
2021/06/25 08:25:58;;;;;;;16.05;14.85;;;18.30;74.90;;;;;;5155674;28;20137;-72
2021/06/25 08:28:30;;;;;;;15.70;14.50;;;18.30;73.90;;;;;;5159763;28;20104;-69
2021/06/25 08:31:02;;;;;;;15.30;14.18;;;18.30;74.30;;;;;;5160289;28;20053;-71
2021/06/25 08:33:34;;;;;;;15.52;14.43;;;18.30;73.10;;;;;;5157755;28;20112;-71
2021/06/25 08:36:07;;;;;;;15.15;14.05;;;18.30;73.80;;;;;;5161236;28;20088;-68
2021/06/25 08:38:39;;;;;;;14.93;13.82;;;18.30;73.80;;;;;;5155932;28;20559;-70
2021/06/25 08:41:11;;;;;;;15.73;14.50;;;18.30;74.20;;;;;;5160044;28;20046;-70
2021/06/25 08:43:42;;;;;;;15.75;14.55;;;18.30;74.30;;;;;;5162593;28;20101;-69
2021/06/25 08:46:16;;;;;;;15.18;14.07;;;18.30;73.80;;;;;;5160219;28;20104;-70
2021/06/25 08:48:50;;;;;;;15.18;14.07;;;18.20;74.60;;;;;;5160465;28;20108;-69
2021/06/25 08:51:22;;;;;;;15.68;14.48;;;18.20;74.50;;;;;;5158604;28;20089;-69
2021/06/25 08:53:54;;;;;;;14.93;13.82;;;18.20;74.10;;;;;;5160981;28;20050;-68
2021/06/25 08:56:31;;;;;;;15.20;14.10;;;18.20;74.50;;;;;;5161193;28;20049;-68
2021/06/25 08:59:03;;;;;;;14.70;13.63;;;18.20;73.50;;;;;;5163096;28;20066;-69
2021/06/25 09:01:36;;;;;;;14.88;13.68;;;18.30;73.50;;;;;;5160958;28;20049;-68
2021/06/25 09:04:08;;;;;;;15.52;14.20;;;18.30;72.70;;;;;;5162876;28;20117;-69
2021/06/25 09:06:53;;;;;;;15.00;13.90;;;18.30;72.70;;;;;;5159326;28;20524;-68
2021/06/25 09:09:38;;;;;;;15.38;14.20;;;18.50;72.90;;;;;;5159942;28;20039;-69
2021/06/25 09:12:23;;;;;;;15.43;14.23;;;18.50;72.20;;;;;;5160390;28;20042;-69
2021/06/25 09:15:03;;;;;;;15.27;14.07;;;18.50;72.20;;;;;;5161749;28;20039;-69
2021/06/25 09:18:09;;;;;;;15.32;14.23;;;18.60;72.10;;;;;;5161151;28;20069;-69
2021/06/25 09:20:54;;;;;;;15.70;14.50;;;18.70;71.60;;;;;;5163865;28;20097;-69
2021/06/25 09:23:34;;;;;;;15.73;14.52;;;18.80;71.30;;;;;;5162662;28;20038;-69
2021/06/25 09:26:10;;;;;;;16.42;15.20;;;19.00;72.00;;;;;;5159806;28;20061;-69
2021/06/25 09:28:44;;;;;;;16.52;15.32;;;19.20;71.00;;;;;;5163351;28;20038;-69
2021/06/25 09:31:22;;;;;;;16.73;15.52;;;19.20;70.80;;;;;;5165037;28;20034;-70
2021/06/25 09:33:56;;;;;;;16.75;15.45;;;19.20;71.20;;;;;;5165133;28;20038;-69
2021/06/25 09:36:32;;;;;;;16.30;14.77;;;19.10;70.80;;;;;;5159627;28;20508;-70
2021/06/25 09:39:10;;;;;;;15.23;14.13;;;19.10;70.90;;;;;;5160864;28;20041;-69
2021/06/25 09:41:45;;;;;;;15.55;14.35;;;19.20;71.20;;;;;;5161311;28;20049;-69
2021/06/25 09:44:18;;;;;;;15.73;14.63;;;19.30;70.20;;;;;;5160008;28;20043;-68
2021/06/25 09:46:52;;;;;;;16.00;14.80;;;19.50;69.50;;;;;;5159815;28;20701;-69
2021/06/25 09:49:31;;;;;;;15.68;14.55;;;19.70;70.10;;;;;;5159945;28;20042;-70
2021/06/25 09:52:04;;;;;;;16.10;14.80;;;19.90;69.40;;;;;;5160179;28;20070;-70
2021/06/25 09:54:35;;;;;;;15.68;14.57;;;20.00;68.70;;;;;;5161008;28;20056;-70
2021/06/25 10:02:23;;;;;;;16.45;15.25;;;20.10;67.10;;;;;;5162203;28;21143;-70
2021/06/25 10:04:58;;;;;;;16.38;15.18;;;20.30;66.90;;;;;;5160213;28;20054;-70
2021/06/25 10:07:31;;;;;;;16.15;14.98;;;20.40;66.60;;;;;;5161918;28;20128;-70
2021/06/25 10:10:12;;;;;;;16.27;15.02;;;20.30;66.70;;;;;;5161440;28;20073;-70
2021/06/25 10:12:44;;;;;;;16.60;15.30;;;20.40;65.30;;;;;;5160062;28;20042;-70
2021/06/25 10:15:16;;;;;;;16.45;15.18;;;20.60;65.40;;;;;;5162580;28;20091;-70
2021/06/25 10:17:48;;;;;;;16.08;14.90;;;20.60;64.00;;;;;;5155728;28;20039;-70
2021/06/25 10:20:21;;;;;;;16.27;15.07;;;20.60;62.30;;;;;;5165261;28;20499;-70
2021/06/25 10:22:55;;;;;;;17.05;15.80;;;20.60;63.40;;;;;;5158695;28;20585;-70
2021/06/25 10:25:29;;;;;;;16.60;15.40;;;20.90;63.50;;;;;;5159003;28;20599;-71
2021/06/25 10:28:02;;;;;;;16.10;14.90;;;21.00;63.80;;;;;;5160317;28;20101;-71
2021/06/25 10:30:35;;;;;;;16.45;15.25;;;21.10;62.50;;;;;;5162586;28;20536;-70
2021/06/25 10:33:08;;;;;;;16.60;15.30;;;21.30;63.40;;;;;;5161618;28;20045;-70
2021/06/25 10:35:49;;;;;;;16.42;15.18;;;21.40;63.90;;;;;;5160044;28;20056;-69
2021/06/25 10:38:27;;;;;;;16.45;15.25;;;21.30;62.80;;;;;;5160581;28;20452;-69
2021/06/25 10:41:02;;;;;;;16.10;14.90;;;21.10;62.90;;;;;;5158843;28;20043;-69
2021/06/25 10:43:41;;;;;;;15.65;14.50;;;21.10;63.10;;;;;;5163234;28;20584;-69
2021/06/25 10:46:39;;;;;;;15.77;14.68;;;21.10;61.80;;;;;;5159096;28;20046;-69
2021/06/25 10:49:14;;;;;;;15.65;14.45;;;21.30;61.90;;;;;;5158390;28;20058;-70
2021/06/25 10:51:46;;;;;;;16.15;14.95;;;21.20;60.00;;;;;;5139490;28;20054;-69
2021/06/25 10:54:20;;;;;;;15.45;14.35;;;21.10;61.40;;;;;;5157826;28;20050;-70
2021/06/25 10:56:52;;;;;;;16.48;15.27;;;20.90;58.60;;;;;;5172749;28;20042;-71
2021/06/25 10:59:27;;;;;;;16.02;14.82;;;20.80;63.20;;;;;;5159574;28;20126;-69
2021/06/25 11:02:04;;;;;;;16.45;15.25;;;20.70;60.90;;;;;;5146572;28;20512;-69
2021/06/25 11:04:39;;;;;;;15.55;14.45;;;20.60;62.60;;;;;;5161891;28;20448;-70
2021/06/25 11:07:45;;;;;;;16.30;15.02;;;20.60;62.50;;;;;;5157815;28;20065;-70
2021/06/25 11:10:24;;;;;;;15.38;14.27;;;20.60;63.00;;;;;;5157053;28;20104;-72
2021/06/25 11:13:17;;;;;;;;;;;20.50;61.80;;;;;;5145929;28;20038;-69
2021/06/25 11:15:52;;;;;;;15.82;14.63;;;20.40;60.00;;;;;;5157384;28;20666;-68
2021/06/25 11:18:29;;;;;;;16.00;14.80;;;20.40;61.90;;;;;;5158496;28;20030;-70
2021/06/25 11:21:04;;;;;;;16.05;14.75;;;20.30;64.30;;;;;;5156329;28;20132;-70
2021/06/25 11:23:39;;;;;;;15.95;14.75;;;20.30;64.60;;;;;;5161832;28;20058;-69
2021/06/25 11:26:14;;;;;;;17.77;16.08;;;20.30;63.10;;;;;;5157639;28;20058;-69
2021/06/25 11:28:52;;;;;;;17.05;15.55;;;20.20;64.50;;;;;;5162529;28;20054;-68
2021/06/25 11:31:28;;;;;;;16.60;15.20;;;20.30;65.60;;;;;;5153635;28;20133;-69
2021/06/25 11:34:04;;;;;;;15.95;14.77;;;20.40;65.40;;;;;;5154356;28;20408;-68
2021/06/25 11:36:52;;;;;;;16.20;15.00;;;20.50;65.80;;;;;;5155550;28;20046;-69
2021/06/25 11:39:34;;;;;;;16.30;15.10;;;20.60;63.40;;;;;;5154331;28;20046;-69
2021/06/25 11:42:09;;;;;;;16.88;15.57;;;20.70;64.70;;;;;;5152944;28;20654;-69
2021/06/25 11:44:44;;;;;;;16.15;14.95;;;20.80;64.20;;;;;;5154401;28;20054;-69
2021/06/25 11:47:18;;;;;;;16.50;15.20;;;20.90;60.40;;;;;;5153299;28;20046;-71
2021/06/25 11:50:05;;;;;;;16.85;15.55;;;20.90;60.90;;;;;;5153872;28;20491;-71
2021/06/25 11:52:41;;;;;;;16.60;15.40;;;21.00;63.50;;;;;;5155219;28;20114;-70
2021/06/25 11:55:13;;;;;;;16.40;15.10;;;21.00;61.70;;;;;;5154599;28;20069;-70
2021/06/25 11:57:45;;;;;;;16.50;15.30;;;21.10;61.30;;;;;;5155917;28;20108;-69
2021/06/25 12:00:20;;;;;;;15.93;14.82;;;21.10;61.70;;;;;;5156424;28;20092;-70
2021/06/25 12:02:58;;;;;;;16.52;15.32;;;21.20;63.30;;;;;;5157261;28;20047;-69
2021/06/25 12:05:35;;;;;;;16.63;15.43;;;21.20;60.90;;;;;;5156026;28;20042;-69
2021/06/25 12:08:14;;;;;;;16.35;15.15;;;21.20;62.10;;;;;;5154397;28;20042;-68
2021/06/25 12:10:52;;;;;;;17.13;15.75;;;21.30;61.60;;;;;;5156277;28;20050;-69
2021/06/25 12:13:24;;;;;;;16.48;15.27;;;21.40;60.30;;;;;;5163314;28;20098;-69
2021/06/25 12:15:56;;;;;;;16.88;15.60;;;21.40;60.60;;;;;;5159999;28;20582;-69
2021/06/25 12:18:28;;;;;;;16.83;15.63;;;21.70;60.90;;;;;;5163335;28;20101;-69
2021/06/25 12:21:11;;;;;;;16.98;15.65;;;22.00;61.00;;;;;;5159828;28;20070;-71
2021/06/25 12:23:43;;;;;;;17.30;16.08;;;22.20;61.80;;;;;;5160470;28;20062;-69
2021/06/25 12:26:19;;;;;;;17.23;15.98;;;22.50;60.10;;;;;;5157348;28;20130;-69
2021/06/25 12:28:53;;;;;;;17.48;16.08;;;22.60;59.80;;;;;;5159911;28;20053;-69
2021/06/25 12:31:35;;;;;;;18.13;16.83;;;22.70;58.50;;;;;;5158746;28;20038;-69
2021/06/25 12:34:09;;;;;;;17.70;16.40;;;22.90;57.40;;;;;;5158131;28;20038;-70
2021/06/25 12:36:41;;;;;;;17.40;16.20;;;22.90;57.10;;;;;;5155303;28;20124;-70
2021/06/25 12:39:17;;;;;;;17.23;16.00;;;22.80;55.80;;;;;;5160140;28;20038;-71
2021/06/25 12:41:49;;;;;;;17.20;15.90;;;22.60;58.10;;;;;;5156418;28;20132;-71
2021/06/25 12:44:24;;;;;;;17.00;15.70;;;22.50;57.40;;;;;;5164586;28;20057;-71
2021/06/25 12:47:07;;;;;;;17.13;15.93;;;22.40;58.60;;;;;;5160489;28;20054;-71
2021/06/25 12:49:41;;;;;;;17.20;15.90;;;22.40;58.30;;;;;;5163120;28;20050;-71
2021/06/25 12:52:28;;;;;;;16.70;15.50;;;22.50;57.60;;;;;;5161134;28;20479;-70
2021/06/25 12:55:00;;;;;;;17.13;15.88;;;22.40;57.60;;;;;;5164683;28;20052;-69
2021/06/25 12:57:33;;;;;;;17.42;16.13;;;22.40;57.90;;;;;;5158643;28;20042;-71
2021/06/25 13:00:05;;;;;;;16.88;15.68;;;22.40;59.00;;;;;;5163795;28;20038;-71
2021/06/25 13:02:37;;;;;;;16.80;15.60;;;22.40;57.70;;;;;;5161274;28;20066;-71
2021/06/25 13:05:10;;;;;;;17.90;16.60;;;22.40;54.90;;;;;;5165771;28;20081;-70
2021/06/25 13:07:41;;;;;;;17.60;16.30;;;22.50;58.00;;;;;;5159808;28;20512;-71
2021/06/25 13:10:14;;;;;;;16.95;15.68;;;22.80;58.00;;;;;;5162000;28;20097;-71
2021/06/25 13:12:46;;;;;;;17.08;15.88;;;22.80;57.00;;;;;;5164018;28;20043;-71
2021/06/25 13:15:18;;;;;;;17.75;16.45;;;22.70;57.90;;;;;;5162603;28;20035;-71